sensor_id;sensor_type;location;lat;lon;timestamp;temperature;humidity
3071;DHT22;1546;47.208;9.038;2022-11-20T00:01:14;7.60;99.90
3071;DHT22;1546;47.208;9.038;2022-11-20T00:03:42;7.80;99.90
3071;DHT22;1546;47.208;9.038;2022-11-20T00:06:11;7.80;99.90
3071;DHT22;1546;47.208;9.038;2022-11-20T00:08:39;7.80;99.90
3071;DHT22;1546;47.208;9.038;2022-11-20T00:11:07;7.80;99.90
3071;DHT22;1546;47.208;9.038;2022-11-20T00:13:34;7.80;99.90
3071;DHT22;1546;47.208;9.038;2022-11-20T00:16:03;7.80;99.90
3071;DHT22;1546;47.208;9.038;2022-11-20T00:18:32;7.80;99.90
3071;DHT22;1546;47.208;9.038;2022-11-20T00:21:02;7.80;99.90
3071;DHT22;1546;47.208;9.038;2022-11-20T00:23:29;7.90;99.90
3071;DHT22;1546;47.208;9.038;2022-11-20T00:25:57;8.00;99.90
3071;DHT22;1546;47.208;9.038;2022-11-20T00:28:27;7.90;99.90
3071;DHT22;1546;47.208;9.038;2022-11-20T00:31:01;7.90;99.90
3071;DHT22;1546;47.208;9.038;2022-11-20T00:33:28;7.80;99.90
3071;DHT22;1546;47.208;9.038;2022-11-20T00:36:00;7.90;99.90
3071;DHT22;1546;47.208;9.038;2022-11-20T00:38:27;7.90;99.90
3071;DHT22;1546;47.208;9.038;2022-11-20T00:40:56;7.90;99.90
3071;DHT22;1546;47.208;9.038;2022-11-20T00:43:23;8.00;99.90
3071;DHT22;1546;47.208;9.038;2022-11-20T00:45:50;8.00;99.90
3071;DHT22;1546;47.208;9.038;2022-11-20T00:48:16;8.10;99.90
3071;DHT22;1546;47.208;9.038;2022-11-20T00:50:43;8.10;99.90
3071;DHT22;1546;47.208;9.038;2022-11-20T00:53:11;8.10;99.90
3071;DHT22;1546;47.208;9.038;2022-11-20T00:55:38;8.10;99.90
3071;DHT22;1546;47.208;9.038;2022-11-20T00:58:05;8.20;99.90
3071;DHT22;1546;47.208;9.038;2022-11-20T01:00:32;8.20;99.90
3071;DHT22;1546;47.208;9.038;2022-11-20T01:02:59;8.10;99.90
3071;DHT22;1546;47.208;9.038;2022-11-20T01:05:25;8.10;99.90
3071;DHT22;1546;47.208;9.038;2022-11-20T01:07:52;8.00;99.90
3071;DHT22;1546;47.208;9.038;2022-11-20T01:10:20;7.90;99.90
3071;DHT22;1546;47.208;9.038;2022-11-20T01:12:47;7.80;99.90
3071;DHT22;1546;47.208;9.038;2022-11-20T01:15:34;7.80;99.90
3071;DHT22;1546;47.208;9.038;2022-11-20T01:18:02;7.60;99.90
3071;DHT22;1546;47.208;9.038;2022-11-20T01:20:28;7.40;99.90
3071;DHT22;1546;47.208;9.038;2022-11-20T01:22:55;7.50;99.90
3071;DHT22;1546;47.208;9.038;2022-11-20T01:25:24;7.50;99.90
3071;DHT22;1546;47.208;9.038;2022-11-20T01:27:50;7.50;99.90
3071;DHT22;1546;47.208;9.038;2022-11-20T01:30:17;7.60;99.90
3071;DHT22;1546;47.208;9.038;2022-11-20T01:32:44;7.50;99.90
3071;DHT22;1546;47.208;9.038;2022-11-20T01:35:11;7.40;99.90
3071;DHT22;1546;47.208;9.038;2022-11-20T01:37:38;7.30;99.90
3071;DHT22;1546;47.208;9.038;2022-11-20T01:40:06;7.30;99.90
3071;DHT22;1546;47.208;9.038;2022-11-20T01:42:34;7.20;99.90
3071;DHT22;1546;47.208;9.038;2022-11-20T01:48:33;7.10;99.90
3071;DHT22;1546;47.208;9.038;2022-11-20T01:51:03;6.90;99.90
3071;DHT22;1546;47.208;9.038;2022-11-20T01:53:32;6.90;99.90
3071;DHT22;1546;47.208;9.038;2022-11-20T01:56:02;6.90;99.90
3071;DHT22;1546;47.208;9.038;2022-11-20T01:58:36;7.00;99.90
3071;DHT22;1546;47.208;9.038;2022-11-20T02:01:05;7.10;99.90
3071;DHT22;1546;47.208;9.038;2022-11-20T02:03:32;7.10;99.90
3071;DHT22;1546;47.208;9.038;2022-11-20T02:06:04;7.20;99.90
3071;DHT22;1546;47.208;9.038;2022-11-20T02:08:33;7.20;99.90
3071;DHT22;1546;47.208;9.038;2022-11-20T02:11:00;7.20;99.90
3071;DHT22;1546;47.208;9.038;2022-11-20T02:13:27;7.20;99.90
3071;DHT22;1546;47.208;9.038;2022-11-20T02:16:13;7.30;99.90
3071;DHT22;1546;47.208;9.038;2022-11-20T02:18:41;7.30;99.90
3071;DHT22;1546;47.208;9.038;2022-11-20T02:24:04;7.30;99.90
3071;DHT22;1546;47.208;9.038;2022-11-20T02:26:33;7.50;99.90
3071;DHT22;1546;47.208;9.038;2022-11-20T02:29:02;7.60;99.90
3071;DHT22;1546;47.208;9.038;2022-11-20T02:31:33;7.70;99.90
3071;DHT22;1546;47.208;9.038;2022-11-20T02:34:00;7.70;99.90
3071;DHT22;1546;47.208;9.038;2022-11-20T02:36:27;7.80;99.90
3071;DHT22;1546;47.208;9.038;2022-11-20T02:38:55;7.70;99.90
3071;DHT22;1546;47.208;9.038;2022-11-20T02:41:30;7.70;99.90
3071;DHT22;1546;47.208;9.038;2022-11-20T02:43:57;7.70;99.90
3071;DHT22;1546;47.208;9.038;2022-11-20T02:46:24;7.70;99.90
3071;DHT22;1546;47.208;9.038;2022-11-20T02:48:51;7.60;99.90
3071;DHT22;1546;47.208;9.038;2022-11-20T02:51:18;7.50;99.90
3071;DHT22;1546;47.208;9.038;2022-11-20T02:53:44;7.50;99.90
3071;DHT22;1546;47.208;9.038;2022-11-20T02:56:11;7.60;99.90
3071;DHT22;1546;47.208;9.038;2022-11-20T02:58:40;7.60;99.90
3071;DHT22;1546;47.208;9.038;2022-11-20T03:01:06;7.70;99.90
3071;DHT22;1546;47.208;9.038;2022-11-20T03:03:33;7.70;99.90
3071;DHT22;1546;47.208;9.038;2022-11-20T03:06:00;8.10;99.90
3071;DHT22;1546;47.208;9.038;2022-11-20T03:08:27;7.60;99.90
3071;DHT22;1546;47.208;9.038;2022-11-20T03:10:54;7.60;99.90
3071;DHT22;1546;47.208;9.038;2022-11-20T03:13:21;7.50;99.90
3071;DHT22;1546;47.208;9.038;2022-11-20T03:15:49;7.60;99.90
3071;DHT22;1546;47.208;9.038;2022-11-20T03:18:16;7.60;99.90
3071;DHT22;1546;47.208;9.038;2022-11-20T03:20:42;7.80;99.90
3071;DHT22;1546;47.208;9.038;2022-11-20T03:23:09;7.80;99.90
3071;DHT22;1546;47.208;9.038;2022-11-20T03:25:36;7.10;99.90
3071;DHT22;1546;47.208;9.038;2022-11-20T03:28:03;7.80;99.90
3071;DHT22;1546;47.208;9.038;2022-11-20T03:30:30;7.70;99.90
3071;DHT22;1546;47.208;9.038;2022-11-20T03:32:58;7.60;99.90
3071;DHT22;1546;47.208;9.038;2022-11-20T03:35:25;7.60;99.90
3071;DHT22;1546;47.208;9.038;2022-11-20T03:37:52;7.40;99.90
3071;DHT22;1546;47.208;9.038;2022-11-20T03:40:19;7.50;99.90
3071;DHT22;1546;47.208;9.038;2022-11-20T03:42:45;7.60;99.90
3071;DHT22;1546;47.208;9.038;2022-11-20T03:45:13;7.70;99.90
3071;DHT22;1546;47.208;9.038;2022-11-20T03:47:40;7.80;99.90
3071;DHT22;1546;47.208;9.038;2022-11-20T03:50:10;7.70;99.90
3071;DHT22;1546;47.208;9.038;2022-11-20T03:52:38;7.70;99.90
3071;DHT22;1546;47.208;9.038;2022-11-20T03:55:05;8.00;99.90
3071;DHT22;1546;47.208;9.038;2022-11-20T03:57:32;7.70;99.90
3071;DHT22;1546;47.208;9.038;2022-11-20T03:59:59;7.70;99.90
3071;DHT22;1546;47.208;9.038;2022-11-20T04:02:26;7.60;99.90
3071;DHT22;1546;47.208;9.038;2022-11-20T04:04:53;7.60;99.90
3071;DHT22;1546;47.208;9.038;2022-11-20T04:07:21;7.50;99.90
3071;DHT22;1546;47.208;9.038;2022-11-20T04:09:48;7.50;99.90
3071;DHT22;1546;47.208;9.038;2022-11-20T04:12:14;7.70;99.90
3071;DHT22;1546;47.208;9.038;2022-11-20T04:14:41;7.80;99.90
3071;DHT22;1546;47.208;9.038;2022-11-20T04:17:08;7.80;99.90
3071;DHT22;1546;47.208;9.038;2022-11-20T04:19:35;7.80;99.90
3071;DHT22;1546;47.208;9.038;2022-11-20T04:22:01;7.80;99.90
3071;DHT22;1546;47.208;9.038;2022-11-20T04:24:30;7.60;99.90
3071;DHT22;1546;47.208;9.038;2022-11-20T04:26:56;7.60;99.90
3071;DHT22;1546;47.208;9.038;2022-11-20T04:29:23;7.50;99.90
3071;DHT22;1546;47.208;9.038;2022-11-20T04:31:50;7.50;99.90
3071;DHT22;1546;47.208;9.038;2022-11-20T04:34:17;7.60;99.90
3071;DHT22;1546;47.208;9.038;2022-11-20T04:36:43;7.70;99.90
3071;DHT22;1546;47.208;9.038;2022-11-20T04:39:12;7.70;99.90
3071;DHT22;1546;47.208;9.038;2022-11-20T04:41:41;7.60;99.90
3071;DHT22;1546;47.208;9.038;2022-11-20T04:44:08;7.80;99.90
3071;DHT22;1546;47.208;9.038;2022-11-20T04:46:36;7.60;99.90
3071;DHT22;1546;47.208;9.038;2022-11-20T04:49:03;7.00;99.90
3071;DHT22;1546;47.208;9.038;2022-11-20T04:51:30;7.60;99.90
3071;DHT22;1546;47.208;9.038;2022-11-20T04:53:57;7.70;99.90
3071;DHT22;1546;47.208;9.038;2022-11-20T04:56:24;7.60;99.90
3071;DHT22;1546;47.208;9.038;2022-11-20T04:58:52;7.60;99.90
3071;DHT22;1546;47.208;9.038;2022-11-20T05:01:21;7.70;99.90
3071;DHT22;1546;47.208;9.038;2022-11-20T05:03:48;7.80;99.90
3071;DHT22;1546;47.208;9.038;2022-11-20T05:06:21;7.80;99.90
3071;DHT22;1546;47.208;9.038;2022-11-20T05:08:48;7.80;99.90
3071;DHT22;1546;47.208;9.038;2022-11-20T05:11:18;7.90;99.90
3071;DHT22;1546;47.208;9.038;2022-11-20T05:13:45;7.90;99.90
3071;DHT22;1546;47.208;9.038;2022-11-20T05:16:15;8.00;99.90
3071;DHT22;1546;47.208;9.038;2022-11-20T05:18:42;7.90;99.90
3071;DHT22;1546;47.208;9.038;2022-11-20T05:21:10;7.80;99.90
3071;DHT22;1546;47.208;9.038;2022-11-20T05:23:37;7.80;99.90
3071;DHT22;1546;47.208;9.038;2022-11-20T05:26:05;8.10;99.90
3071;DHT22;1546;47.208;9.038;2022-11-20T05:28:32;7.70;99.90
3071;DHT22;1546;47.208;9.038;2022-11-20T05:31:05;7.60;99.90
3071;DHT22;1546;47.208;9.038;2022-11-20T05:33:34;7.50;99.90
3071;DHT22;1546;47.208;9.038;2022-11-20T05:36:02;7.50;99.90
3071;DHT22;1546;47.208;9.038;2022-11-20T05:38:29;7.50;99.90
3071;DHT22;1546;47.208;9.038;2022-11-20T05:41:03;7.30;99.90
3071;DHT22;1546;47.208;9.038;2022-11-20T05:43:32;7.20;99.90
3071;DHT22;1546;47.208;9.038;2022-11-20T05:45:59;7.10;99.90
3071;DHT22;1546;47.208;9.038;2022-11-20T05:48:26;7.20;99.90
3071;DHT22;1546;47.208;9.038;2022-11-20T05:50:54;7.10;99.90
3071;DHT22;1546;47.208;9.038;2022-11-20T05:53:21;7.10;99.90
3071;DHT22;1546;47.208;9.038;2022-11-20T05:55:56;7.10;99.90
3071;DHT22;1546;47.208;9.038;2022-11-20T05:58:23;7.10;99.90
3071;DHT22;1546;47.208;9.038;2022-11-20T06:00:49;7.10;99.90
3071;DHT22;1546;47.208;9.038;2022-11-20T06:03:16;7.10;99.90
3071;DHT22;1546;47.208;9.038;2022-11-20T06:05:43;7.10;99.90
3071;DHT22;1546;47.208;9.038;2022-11-20T06:08:11;7.10;99.90
3071;DHT22;1546;47.208;9.038;2022-11-20T06:10:38;7.10;99.90
3071;DHT22;1546;47.208;9.038;2022-11-20T06:13:05;7.80;99.90
3071;DHT22;1546;47.208;9.038;2022-11-20T06:15:32;7.50;99.90
3071;DHT22;1546;47.208;9.038;2022-11-20T06:17:58;7.40;99.90
3071;DHT22;1546;47.208;9.038;2022-11-20T06:20:25;7.40;99.90
3071;DHT22;1546;47.208;9.038;2022-11-20T06:22:52;7.20;99.90
3071;DHT22;1546;47.208;9.038;2022-11-20T06:25:20;7.20;99.90
3071;DHT22;1546;47.208;9.038;2022-11-20T06:27:47;7.10;99.90
3071;DHT22;1546;47.208;9.038;2022-11-20T06:30:14;7.00;99.90
3071;DHT22;1546;47.208;9.038;2022-11-20T06:32:41;7.00;99.90
3071;DHT22;1546;47.208;9.038;2022-11-20T06:35:08;6.90;99.90
3071;DHT22;1546;47.208;9.038;2022-11-20T06:37:35;6.90;99.90
3071;DHT22;1546;47.208;9.038;2022-11-20T06:40:03;6.80;99.90
3071;DHT22;1546;47.208;9.038;2022-11-20T06:42:32;6.90;99.90
3071;DHT22;1546;47.208;9.038;2022-11-20T06:44:59;6.80;99.90
3071;DHT22;1546;47.208;9.038;2022-11-20T06:47:25;6.80;99.90
3071;DHT22;1546;47.208;9.038;2022-11-20T06:49:52;6.80;99.90
3071;DHT22;1546;47.208;9.038;2022-11-20T06:52:19;6.80;99.90
3071;DHT22;1546;47.208;9.038;2022-11-20T06:54:46;6.90;99.90
3071;DHT22;1546;47.208;9.038;2022-11-20T06:57:13;6.60;99.90
3071;DHT22;1546;47.208;9.038;2022-11-20T06:59:41;8.10;99.90
3071;DHT22;1546;47.208;9.038;2022-11-20T07:02:09;6.60;99.90
3071;DHT22;1546;47.208;9.038;2022-11-20T07:04:36;7.10;99.90
3071;DHT22;1546;47.208;9.038;2022-11-20T07:07:03;7.10;99.90
3071;DHT22;1546;47.208;9.038;2022-11-20T07:09:30;7.20;99.90
3071;DHT22;1546;47.208;9.038;2022-11-20T07:11:57;7.30;99.90
3071;DHT22;1546;47.208;9.038;2022-11-20T07:14:25;7.40;99.90
3071;DHT22;1546;47.208;9.038;2022-11-20T07:16:53;7.50;99.90
3071;DHT22;1546;47.208;9.038;2022-11-20T07:19:19;7.50;99.90
3071;DHT22;1546;47.208;9.038;2022-11-20T07:21:46;7.50;99.90
3071;DHT22;1546;47.208;9.038;2022-11-20T07:24:13;7.40;99.90
3071;DHT22;1546;47.208;9.038;2022-11-20T07:26:40;8.10;99.90
3071;DHT22;1546;47.208;9.038;2022-11-20T07:29:07;7.70;99.90
3071;DHT22;1546;47.208;9.038;2022-11-20T07:31:34;7.60;99.90
3071;DHT22;1546;47.208;9.038;2022-11-20T07:34:02;7.60;99.90
3071;DHT22;1546;47.208;9.038;2022-11-20T07:36:29;7.60;99.90
3071;DHT22;1546;47.208;9.038;2022-11-20T07:38:55;7.60;99.90
3071;DHT22;1546;47.208;9.038;2022-11-20T07:41:22;7.70;99.90
3071;DHT22;1546;47.208;9.038;2022-11-20T07:43:49;7.90;99.90
3071;DHT22;1546;47.208;9.038;2022-11-20T07:46:16;8.00;99.90
3071;DHT22;1546;47.208;9.038;2022-11-20T07:48:43;8.10;99.90
3071;DHT22;1546;47.208;9.038;2022-11-20T07:51:11;8.10;99.90
3071;DHT22;1546;47.208;9.038;2022-11-20T07:53:38;8.00;99.90
3071;DHT22;1546;47.208;9.038;2022-11-20T07:56:06;7.00;99.90
3071;DHT22;1546;47.208;9.038;2022-11-20T07:58:33;7.80;99.90
3071;DHT22;1546;47.208;9.038;2022-11-20T08:01:03;8.70;99.90
3071;DHT22;1546;47.208;9.038;2022-11-20T08:03:30;7.40;99.90
3071;DHT22;1546;47.208;9.038;2022-11-20T08:05:59;7.70;99.90
3071;DHT22;1546;47.208;9.038;2022-11-20T08:08:27;7.80;99.90
3071;DHT22;1546;47.208;9.038;2022-11-20T08:10:56;7.90;99.90
3071;DHT22;1546;47.208;9.038;2022-11-20T08:13:43;8.10;99.90
3071;DHT22;1546;47.208;9.038;2022-11-20T08:16:28;8.10;99.90
3071;DHT22;1546;47.208;9.038;2022-11-20T08:18:55;8.00;99.90
3071;DHT22;1546;47.208;9.038;2022-11-20T08:21:22;8.00;99.90
3071;DHT22;1546;47.208;9.038;2022-11-20T08:23:50;7.60;99.90
3071;DHT22;1546;47.208;9.038;2022-11-20T08:26:17;8.00;99.90
3071;DHT22;1546;47.208;9.038;2022-11-20T08:28:44;8.00;99.90
3071;DHT22;1546;47.208;9.038;2022-11-20T08:31:11;8.10;99.90
3071;DHT22;1546;47.208;9.038;2022-11-20T08:33:37;8.10;99.90
3071;DHT22;1546;47.208;9.038;2022-11-20T08:36:05;7.30;99.90
3071;DHT22;1546;47.208;9.038;2022-11-20T08:38:32;8.00;99.90
3071;DHT22;1546;47.208;9.038;2022-11-20T08:41:02;8.10;99.90
3071;DHT22;1546;47.208;9.038;2022-11-20T08:43:47;8.10;99.90
3071;DHT22;1546;47.208;9.038;2022-11-20T08:46:14;8.20;99.90
3071;DHT22;1546;47.208;9.038;2022-11-20T08:48:41;8.40;99.90
3071;DHT22;1546;47.208;9.038;2022-11-20T08:51:08;8.50;99.90
3071;DHT22;1546;47.208;9.038;2022-11-20T08:53:34;8.70;99.90
3071;DHT22;1546;47.208;9.038;2022-11-20T08:56:03;8.80;99.90
3071;DHT22;1546;47.208;9.038;2022-11-20T08:58:30;8.80;99.90
3071;DHT22;1546;47.208;9.038;2022-11-20T09:00:57;8.50;99.90
3071;DHT22;1546;47.208;9.038;2022-11-20T09:03:23;8.90;99.90
3071;DHT22;1546;47.208;9.038;2022-11-20T09:05:57;9.10;99.90
3071;DHT22;1546;47.208;9.038;2022-11-20T09:08:23;9.20;99.90
3071;DHT22;1546;47.208;9.038;2022-11-20T09:10:51;9.20;99.90
3071;DHT22;1546;47.208;9.038;2022-11-20T09:13:19;9.30;99.90
3071;DHT22;1546;47.208;9.038;2022-11-20T09:15:47;9.40;99.90
3071;DHT22;1546;47.208;9.038;2022-11-20T09:18:13;9.40;99.90
3071;DHT22;1546;47.208;9.038;2022-11-20T09:20:40;9.40;99.90
3071;DHT22;1546;47.208;9.038;2022-11-20T09:23:07;9.20;99.90
3071;DHT22;1546;47.208;9.038;2022-11-20T09:25:34;9.30;99.90
3071;DHT22;1546;47.208;9.038;2022-11-20T09:28:01;9.40;99.90
3071;DHT22;1546;47.208;9.038;2022-11-20T09:30:29;9.60;99.90
3071;DHT22;1546;47.208;9.038;2022-11-20T09:32:56;9.80;99.90
3071;DHT22;1546;47.208;9.038;2022-11-20T09:35:23;9.90;99.90
3071;DHT22;1546;47.208;9.038;2022-11-20T09:37:50;10.00;99.90
3071;DHT22;1546;47.208;9.038;2022-11-20T09:40:20;10.20;99.90
3071;DHT22;1546;47.208;9.038;2022-11-20T09:42:54;10.40;99.90
3071;DHT22;1546;47.208;9.038;2022-11-20T09:45:30;10.50;99.90
3071;DHT22;1546;47.208;9.038;2022-11-20T09:48:13;10.50;99.90
3071;DHT22;1546;47.208;9.038;2022-11-20T09:50:45;10.40;99.90
3071;DHT22;1546;47.208;9.038;2022-11-20T09:53:20;10.40;99.60
3071;DHT22;1546;47.208;9.038;2022-11-20T09:55:51;10.50;98.80
3071;DHT22;1546;47.208;9.038;2022-11-20T09:58:28;10.80;99.90
3071;DHT22;1546;47.208;9.038;2022-11-20T10:01:03;11.10;99.00
3071;DHT22;1546;47.208;9.038;2022-11-20T10:03:39;11.30;98.60
3071;DHT22;1546;47.208;9.038;2022-11-20T10:06:12;11.40;99.00
3071;DHT22;1546;47.208;9.038;2022-11-20T10:08:44;11.40;99.90
3071;DHT22;1546;47.208;9.038;2022-11-20T10:11:17;13.30;99.90
3071;DHT22;1546;47.208;9.038;2022-11-20T10:13:55;13.60;99.90
3071;DHT22;1546;47.208;9.038;2022-11-20T10:16:34;11.50;99.90
3071;DHT22;1546;47.208;9.038;2022-11-20T10:19:13;11.30;99.90
3071;DHT22;1546;47.208;9.038;2022-11-20T10:21:55;11.20;97.20
3071;DHT22;1546;47.208;9.038;2022-11-20T10:24:42;11.30;99.90
3071;DHT22;1546;47.208;9.038;2022-11-20T10:27:26;11.20;99.90
3071;DHT22;1546;47.208;9.038;2022-11-20T10:30:02;11.10;99.90
3071;DHT22;1546;47.208;9.038;2022-11-20T10:32:35;11.00;99.90
3071;DHT22;1546;47.208;9.038;2022-11-20T10:35:07;11.00;99.90
3071;DHT22;1546;47.208;9.038;2022-11-20T10:37:41;11.10;99.90
3071;DHT22;1546;47.208;9.038;2022-11-20T10:40:20;10.70;98.80
3071;DHT22;1546;47.208;9.038;2022-11-20T10:42:51;9.90;99.20
3071;DHT22;1546;47.208;9.038;2022-11-20T10:45:33;11.30;98.00
3071;DHT22;1546;47.208;9.038;2022-11-20T10:48:15;11.20;99.90
3071;DHT22;1546;47.208;9.038;2022-11-20T10:51:08;10.80;99.90
3071;DHT22;1546;47.208;9.038;2022-11-20T10:53:56;10.50;99.90
3071;DHT22;1546;47.208;9.038;2022-11-20T10:56:30;10.60;99.90
3071;DHT22;1546;47.208;9.038;2022-11-20T10:59:18;10.80;99.90
3071;DHT22;1546;47.208;9.038;2022-11-20T11:01:51;10.80;99.90
3071;DHT22;1546;47.208;9.038;2022-11-20T11:04:35;10.70;99.90
3071;DHT22;1546;47.208;9.038;2022-11-20T11:07:10;10.80;99.90
3071;DHT22;1546;47.208;9.038;2022-11-20T11:09:42;10.60;99.90
3071;DHT22;1546;47.208;9.038;2022-11-20T11:12:09;10.50;99.90
3071;DHT22;1546;47.208;9.038;2022-11-20T11:14:45;10.50;99.90
3071;DHT22;1546;47.208;9.038;2022-11-20T11:17:21;10.40;99.90
3071;DHT22;1546;47.208;9.038;2022-11-20T11:20:01;10.50;99.90
3071;DHT22;1546;47.208;9.038;2022-11-20T11:22:29;10.70;99.90
3071;DHT22;1546;47.208;9.038;2022-11-20T11:24:57;10.50;99.90
3071;DHT22;1546;47.208;9.038;2022-11-20T11:27:23;10.70;99.90
3071;DHT22;1546;47.208;9.038;2022-11-20T11:30:02;10.70;99.90
3071;DHT22;1546;47.208;9.038;2022-11-20T11:32:29;11.00;99.90
3071;DHT22;1546;47.208;9.038;2022-11-20T11:35:01;11.10;99.90
3071;DHT22;1546;47.208;9.038;2022-11-20T11:37:33;11.20;99.90
3071;DHT22;1546;47.208;9.038;2022-11-20T11:40:01;11.50;99.90
3071;DHT22;1546;47.208;9.038;2022-11-20T11:42:28;11.70;99.90
3071;DHT22;1546;47.208;9.038;2022-11-20T11:44:57;11.90;99.90
3071;DHT22;1546;47.208;9.038;2022-11-20T11:47:36;12.10;99.90
3071;DHT22;1546;47.208;9.038;2022-11-20T11:50:17;12.40;99.90
3071;DHT22;1546;47.208;9.038;2022-11-20T11:52:48;12.50;99.90
3071;DHT22;1546;47.208;9.038;2022-11-20T11:55:19;12.20;99.90
3071;DHT22;1546;47.208;9.038;2022-11-20T11:57:54;11.30;98.30
3071;DHT22;1546;47.208;9.038;2022-11-20T12:00:22;12.00;90.90
3071;DHT22;1546;47.208;9.038;2022-11-20T12:02:57;11.80;99.90
3071;DHT22;1546;47.208;9.038;2022-11-20T12:05:36;11.60;99.90
3071;DHT22;1546;47.208;9.038;2022-11-20T12:08:09;11.70;99.90
3071;DHT22;1546;47.208;9.038;2022-11-20T12:10:41;11.70;99.90
3071;DHT22;1546;47.208;9.038;2022-11-20T12:13:20;11.50;99.90
3071;DHT22;1546;47.208;9.038;2022-11-20T12:15:48;11.20;99.90
3071;DHT22;1546;47.208;9.038;2022-11-20T12:18:18;10.80;99.90
3071;DHT22;1546;47.208;9.038;2022-11-20T12:20:55;10.70;99.90
3071;DHT22;1546;47.208;9.038;2022-11-20T12:23:29;10.80;99.90
3071;DHT22;1546;47.208;9.038;2022-11-20T12:26:05;11.10;99.90
3071;DHT22;1546;47.208;9.038;2022-11-20T12:28:44;11.20;99.90
3071;DHT22;1546;47.208;9.038;2022-11-20T12:31:29;11.00;99.90
3071;DHT22;1546;47.208;9.038;2022-11-20T12:34:10;10.80;99.90
3071;DHT22;1546;47.208;9.038;2022-11-20T12:36:45;11.00;99.90
3071;DHT22;1546;47.208;9.038;2022-11-20T12:39:31;11.60;99.90
3071;DHT22;1546;47.208;9.038;2022-11-20T12:42:23;12.20;99.90
3071;DHT22;1546;47.208;9.038;2022-11-20T12:45:28;12.10;99.90
3071;DHT22;1546;47.208;9.038;2022-11-20T12:50:58;11.90;99.90
3071;DHT22;1546;47.208;9.038;2022-11-20T12:53:39;12.40;99.90
3071;DHT22;1546;47.208;9.038;2022-11-20T12:56:21;14.30;91.20
3071;DHT22;1546;47.208;9.038;2022-11-20T12:58:55;14.50;86.90
3071;DHT22;1546;47.208;9.038;2022-11-20T13:01:27;14.00;86.40
3071;DHT22;1546;47.208;9.038;2022-11-20T13:04:29;13.60;87.50
3071;DHT22;1546;47.208;9.038;2022-11-20T13:07:01;13.20;88.80
3071;DHT22;1546;47.208;9.038;2022-11-20T13:09:30;13.70;91.50
3071;DHT22;1546;47.208;9.038;2022-11-20T13:12:04;14.10;87.50
3071;DHT22;1546;47.208;9.038;2022-11-20T13:14:37;15.00;90.20
3071;DHT22;1546;47.208;9.038;2022-11-20T13:17:09;16.70;86.10
3071;DHT22;1546;47.208;9.038;2022-11-20T13:19:38;18.00;80.80
3071;DHT22;1546;47.208;9.038;2022-11-20T13:22:07;18.80;75.90
3071;DHT22;1546;47.208;9.038;2022-11-20T13:24:35;18.60;73.50
3071;DHT22;1546;47.208;9.038;2022-11-20T13:27:05;17.60;73.00
3071;DHT22;1546;47.208;9.038;2022-11-20T13:29:33;16.50;75.60
3071;DHT22;1546;47.208;9.038;2022-11-20T13:32:05;15.70;77.50
3071;DHT22;1546;47.208;9.038;2022-11-20T13:34:33;15.50;78.90
3071;DHT22;1546;47.208;9.038;2022-11-20T13:37:00;15.70;79.00
3071;DHT22;1546;47.208;9.038;2022-11-20T13:39:31;16.20;78.80
3071;DHT22;1546;47.208;9.038;2022-11-20T13:42:01;17.00;76.50
3071;DHT22;1546;47.208;9.038;2022-11-20T13:44:33;16.60;74.60
3071;DHT22;1546;47.208;9.038;2022-11-20T13:47:03;15.80;77.60
3071;DHT22;1546;47.208;9.038;2022-11-20T13:49:32;16.00;80.10
3071;DHT22;1546;47.208;9.038;2022-11-20T13:55:05;18.10;75.10
3071;DHT22;1546;47.208;9.038;2022-11-20T14:00:48;19.10;68.30
3071;DHT22;1546;47.208;9.038;2022-11-20T14:03:19;17.80;70.40
3071;DHT22;1546;47.208;9.038;2022-11-20T14:05:51;16.90;71.00
3071;DHT22;1546;47.208;9.038;2022-11-20T14:08:27;16.40;73.70
3071;DHT22;1546;47.208;9.038;2022-11-20T14:11:13;16.60;74.40
3071;DHT22;1546;47.208;9.038;2022-11-20T14:13:55;17.60;73.60
3071;DHT22;1546;47.208;9.038;2022-11-20T14:16:25;18.70;69.60
3071;DHT22;1546;47.208;9.038;2022-11-20T14:18:53;18.70;67.00
3071;DHT22;1546;47.208;9.038;2022-11-20T14:21:24;19.20;65.40
3071;DHT22;1546;47.208;9.038;2022-11-20T14:24:03;19.40;66.30
3071;DHT22;1546;47.208;9.038;2022-11-20T14:26:30;19.30;65.70
3071;DHT22;1546;47.208;9.038;2022-11-20T14:28:57;19.50;66.20
3071;DHT22;1546;47.208;9.038;2022-11-20T14:31:27;20.00;64.90
3071;DHT22;1546;47.208;9.038;2022-11-20T14:33:55;20.50;65.20
3071;DHT22;1546;47.208;9.038;2022-11-20T14:36:24;20.50;63.60
3071;DHT22;1546;47.208;9.038;2022-11-20T14:38:51;20.60;60.00
3071;DHT22;1546;47.208;9.038;2022-11-20T14:41:20;20.40;59.80
3071;DHT22;1546;47.208;9.038;2022-11-20T14:43:51;20.20;58.00
3071;DHT22;1546;47.208;9.038;2022-11-20T14:46:19;20.30;60.10
3071;DHT22;1546;47.208;9.038;2022-11-20T14:48:50;20.40;59.10
3071;DHT22;1546;47.208;9.038;2022-11-20T14:51:31;20.50;60.70
3071;DHT22;1546;47.208;9.038;2022-11-20T14:54:09;20.60;59.90
3071;DHT22;1546;47.208;9.038;2022-11-20T14:56:36;20.30;61.70
3071;DHT22;1546;47.208;9.038;2022-11-20T14:59:03;19.90;62.70
3071;DHT22;1546;47.208;9.038;2022-11-20T15:01:32;18.90;63.10
3071;DHT22;1546;47.208;9.038;2022-11-20T15:04:05;17.30;67.00
3071;DHT22;1546;47.208;9.038;2022-11-20T15:06:33;16.00;70.80
3071;DHT22;1546;47.208;9.038;2022-11-20T15:09:00;15.10;73.90
3071;DHT22;1546;47.208;9.038;2022-11-20T15:11:30;14.30;76.20
3071;DHT22;1546;47.208;9.038;2022-11-20T15:14:01;13.40;78.40
3071;DHT22;1546;47.208;9.038;2022-11-20T15:16:29;12.60;81.20
3071;DHT22;1546;47.208;9.038;2022-11-20T15:18:56;11.90;83.10
3071;DHT22;1546;47.208;9.038;2022-11-20T15:21:24;11.40;83.80
3071;DHT22;1546;47.208;9.038;2022-11-20T15:23:51;10.80;85.70
3071;DHT22;1546;47.208;9.038;2022-11-20T15:26:23;10.20;88.90
3071;DHT22;1546;47.208;9.038;2022-11-20T15:28:51;9.80;90.70
3071;DHT22;1546;47.208;9.038;2022-11-20T15:31:20;9.40;92.00
3071;DHT22;1546;47.208;9.038;2022-11-20T15:33:47;9.20;93.30
3071;DHT22;1546;47.208;9.038;2022-11-20T15:36:15;8.80;94.40
3071;DHT22;1546;47.208;9.038;2022-11-20T15:38:43;8.50;95.40
3071;DHT22;1546;47.208;9.038;2022-11-20T15:41:10;8.30;96.30
3071;DHT22;1546;47.208;9.038;2022-11-20T15:43:37;8.10;96.80
3071;DHT22;1546;47.208;9.038;2022-11-20T15:46:06;8.00;97.20
3071;DHT22;1546;47.208;9.038;2022-11-20T15:48:38;7.90;98.10
3071;DHT22;1546;47.208;9.038;2022-11-20T15:51:12;7.90;98.60
3071;DHT22;1546;47.208;9.038;2022-11-20T15:53:43;7.80;98.60
3071;DHT22;1546;47.208;9.038;2022-11-20T15:56:12;7.70;98.70
3071;DHT22;1546;47.208;9.038;2022-11-20T15:58:39;7.70;98.80
3071;DHT22;1546;47.208;9.038;2022-11-20T16:01:10;7.60;99.20
3071;DHT22;1546;47.208;9.038;2022-11-20T16:03:37;7.40;99.10
3071;DHT22;1546;47.208;9.038;2022-11-20T16:06:04;7.30;99.50
3071;DHT22;1546;47.208;9.038;2022-11-20T16:08:31;7.10;99.90
3071;DHT22;1546;47.208;9.038;2022-11-20T16:10:59;7.00;99.90
3071;DHT22;1546;47.208;9.038;2022-11-20T16:13:26;7.00;99.90
3071;DHT22;1546;47.208;9.038;2022-11-20T16:16:19;7.10;99.90
3071;DHT22;1546;47.208;9.038;2022-11-20T16:18:46;7.10;99.90
3071;DHT22;1546;47.208;9.038;2022-11-20T16:21:13;7.20;99.90
3071;DHT22;1546;47.208;9.038;2022-11-20T16:23:40;7.40;99.90
3071;DHT22;1546;47.208;9.038;2022-11-20T16:26:13;7.50;99.90
3071;DHT22;1546;47.208;9.038;2022-11-20T16:28:41;7.50;99.90
3071;DHT22;1546;47.208;9.038;2022-11-20T16:31:09;7.50;99.90
3071;DHT22;1546;47.208;9.038;2022-11-20T16:33:36;7.30;99.90
3071;DHT22;1546;47.208;9.038;2022-11-20T16:36:07;7.20;99.90
3071;DHT22;1546;47.208;9.038;2022-11-20T16:38:34;7.40;99.90
3071;DHT22;1546;47.208;9.038;2022-11-20T16:41:01;7.50;99.90
3071;DHT22;1546;47.208;9.038;2022-11-20T16:43:29;7.40;99.90
3071;DHT22;1546;47.208;9.038;2022-11-20T16:45:56;7.40;99.90